Time;durP1;ratioP1;P1;durP2;ratioP2;P2;SDS_P1;SDS_P2;PMS_P1;PMS_P2;Temp;Humidity;BMP_temperature;BMP_pressure;BME280_temperature;BME280_humidity;BME280_pressure;Samples;Min_cycle;Max_cycle;Signal;HPM_P1;HPM_P2
2022/12/04 00:01:47;;;;;;;11.73;9.57;;;0.60;99.90;;;;;;4992164;28;20257;-70
2022/12/04 00:04:13;;;;;;;11.17;9.70;;;0.50;99.90;;;;;;4992005;28;20189;-70
2022/12/04 00:06:38;;;;;;;12.07;8.93;;;0.50;99.90;;;;;;4996448;28;20375;-71
2022/12/04 00:09:04;;;;;;;10.73;9.10;;;0.50;99.90;;;;;;4992260;28;20182;-71
2022/12/04 00:11:31;;;;;;;11.27;9.70;;;0.50;99.90;;;;;;4994991;28;20182;-71
2022/12/04 00:13:58;;;;;;;13.00;9.47;;;0.40;99.90;;;;;;4993488;28;20273;-71
2022/12/04 00:16:26;;;;;;;10.33;9.17;;;0.40;99.90;;;;;;4992963;28;20213;-71
2022/12/04 00:18:53;;;;;;;10.20;9.13;;;0.40;99.90;;;;;;4995262;28;20372;-71
2022/12/04 00:21:20;;;;;;;10.30;8.40;;;0.30;99.90;;;;;;4995099;28;20210;-71
2022/12/04 00:23:46;;;;;;;11.10;9.17;;;0.30;99.90;;;;;;4994682;28;20181;-71
2022/12/04 00:26:16;;;;;;;12.83;9.83;;;0.30;99.90;;;;;;4993802;28;20663;-69
2022/12/04 00:28:42;;;;;;;11.20;9.73;;;0.20;99.90;;;;;;4994745;28;20174;-69
2022/12/04 00:31:12;;;;;;;11.90;9.93;;;0.30;99.90;;;;;;4987202;28;20178;-69
2022/12/04 00:33:38;;;;;;;10.93;8.73;;;0.20;99.90;;;;;;4994458;28;20520;-71
2022/12/04 00:36:06;;;;;;;10.43;9.13;;;0.30;99.90;;;;;;4990491;28;20248;-71
2022/12/04 00:38:32;;;;;;;11.83;10.07;;;0.20;99.90;;;;;;4994937;28;20333;-70
2022/12/04 00:40:59;;;;;;;11.87;9.73;;;0.30;99.90;;;;;;4994823;28;20269;-71
2022/12/04 00:43:26;;;;;;;11.57;9.87;;;0.30;99.90;;;;;;4993653;28;20209;-70
2022/12/04 00:45:52;;;;;;;11.40;10.00;;;0.20;99.90;;;;;;4988002;28;20602;-70
2022/12/04 00:48:17;;;;;;;10.70;9.50;;;0.20;99.90;;;;;;4991540;28;20240;-70
2022/12/04 00:50:43;;;;;;;10.77;8.77;;;0.20;99.90;;;;;;4994122;28;20209;-69
2022/12/04 00:53:09;;;;;;;11.43;9.57;;;0.20;99.90;;;;;;4993349;28;20691;-70
2022/12/04 00:55:37;;;;;;;10.60;9.07;;;0.20;99.90;;;;;;4994519;28;20186;-70
2022/12/04 00:58:03;;;;;;;11.50;9.37;;;0.10;99.90;;;;;;4995579;28;20673;-70
2022/12/04 01:00:29;;;;;;;10.60;9.33;;;0.10;99.90;;;;;;4993751;28;20209;-70
2022/12/04 01:02:55;;;;;;;11.30;10.10;;;0.20;99.90;;;;;;4993444;28;20368;-70
2022/12/04 01:05:21;;;;;;;9.50;8.40;;;0.20;99.90;;;;;;4993771;28;20193;-70
2022/12/04 01:07:46;;;;;;;10.40;9.30;;;0.20;99.90;;;;;;4995174;28;20216;-69
2022/12/04 01:10:12;;;;;;;9.87;8.87;;;0.20;99.90;;;;;;4994986;28;20188;-69
2022/12/04 01:12:38;;;;;;;9.47;8.43;;;0.20;99.90;;;;;;4995740;28;20184;-69
2022/12/04 01:15:04;;;;;;;11.57;9.30;;;0.30;99.90;;;;;;5001069;28;20182;-69
2022/12/04 01:17:30;;;;;;;12.37;9.43;;;0.30;99.90;;;;;;4992769;28;20217;-69
2022/12/04 01:19:55;;;;;;;11.27;9.43;;;0.30;99.90;;;;;;4997474;28;20182;-70
2022/12/04 01:22:21;;;;;;;9.03;8.13;;;0.30;99.90;;;;;;4994115;28;20197;-70
2022/12/04 01:24:46;;;;;;;12.60;9.60;;;0.30;99.90;;;;;;4992132;28;20573;-71
2022/12/04 01:27:12;;;;;;;11.87;9.60;;;0.30;99.90;;;;;;4994292;28;20555;-69
2022/12/04 01:29:38;;;;;;;11.23;9.37;;;0.20;99.90;;;;;;4993993;28;20178;-69
2022/12/04 01:32:03;;;;;;;13.00;10.10;;;0.30;99.90;;;;;;4994194;28;20213;-71
2022/12/04 01:34:29;;;;;;;13.90;10.40;;;0.30;99.90;;;;;;4989181;28;20548;-70
2022/12/04 01:36:55;;;;;;;10.87;9.20;;;0.30;99.90;;;;;;4993021;28;20289;-70
2022/12/04 01:39:20;;;;;;;12.87;10.20;;;0.30;99.90;;;;;;4992433;28;21746;-70
2022/12/04 01:41:46;;;;;;;12.97;9.63;;;0.30;99.90;;;;;;4993892;28;20193;-70
2022/12/04 01:44:24;;;;;;;10.93;9.53;;;0.30;99.90;;;;;;4989423;28;20212;-70
2022/12/04 01:46:52;;;;;;;10.13;8.93;;;0.20;99.90;;;;;;4990567;28;20209;-70
2022/12/04 01:49:20;;;;;;;12.07;9.70;;;0.30;99.90;;;;;;4993446;28;20579;-70
2022/12/04 01:51:52;;;;;;;14.03;9.30;;;0.30;99.90;;;;;;4991842;28;20203;-70
2022/12/04 01:54:27;;;;;;;11.13;9.27;;;0.30;99.90;;;;;;4989340;28;20185;-70
2022/12/04 01:57:05;;;;;;;11.83;9.23;;;0.30;99.90;;;;;;4993326;28;20193;-70
2022/12/04 01:59:34;;;;;;;10.77;9.13;;;0.30;99.90;;;;;;4992782;28;20653;-69
2022/12/04 02:02:13;;;;;;;11.80;9.00;;;0.30;99.90;;;;;;4992055;28;20268;-70
2022/12/04 02:04:39;;;;;;;15.43;11.27;;;0.20;99.90;;;;;;4992941;28;20651;-71
2022/12/04 02:07:05;;;;;;;14.07;10.53;;;0.30;99.90;;;;;;4991722;28;20764;-72
2022/12/04 02:09:31;;;;;;;12.53;9.87;;;0.20;99.90;;;;;;4990069;28;20270;-70
2022/12/04 02:12:23;;;;;;;12.47;9.87;;;0.30;99.90;;;;;;4984063;28;20192;-70
2022/12/04 02:14:59;;;;;;;11.77;9.87;;;0.30;99.90;;;;;;4982470;28;20732;-73
2022/12/04 02:17:32;;;;;;;10.63;8.80;;;0.20;99.90;;;;;;4986354;28;20213;-68
2022/12/04 02:20:35;;;;;;;11.43;9.10;;;0.20;99.90;;;;;;4983274;28;20621;-68
2022/12/04 02:23:30;;;;;;;11.50;9.00;;;0.30;99.90;;;;;;4990006;28;20184;-68
2022/12/04 02:25:58;;;;;;;10.83;8.67;;;0.30;99.90;;;;;;4980841;28;20213;-68
2022/12/04 02:28:35;;;;;;;11.00;9.20;;;0.30;99.90;;;;;;4990616;28;20213;-69
2022/12/04 02:31:03;;;;;;;9.60;8.43;;;0.30;99.90;;;;;;4989850;28;20189;-70
2022/12/04 02:33:37;;;;;;;12.13;9.37;;;0.30;99.90;;;;;;4990292;28;20177;-70
2022/12/04 02:36:24;;;;;;;11.97;9.30;;;0.30;99.90;;;;;;4981409;28;20718;-70
2022/12/04 02:38:56;;;;;;;11.13;9.47;;;0.30;99.90;;;;;;4979507;28;20715;-70
2022/12/04 02:41:39;;;;;;;11.60;9.37;;;0.20;99.90;;;;;;4983697;28;20182;-71
2022/12/04 02:44:17;;;;;;;11.30;8.97;;;0.30;99.90;;;;;;4981649;28;20190;-69
2022/12/04 02:46:47;;;;;;;11.67;9.40;;;0.20;99.90;;;;;;4981040;28;20210;-69
2022/12/04 02:49:31;;;;;;;9.90;8.57;;;0.10;99.90;;;;;;4983405;28;20223;-70
2022/12/04 02:51:59;;;;;;;13.20;9.40;;;0.10;99.90;;;;;;4987357;28;20201;-69
2022/12/04 02:54:27;;;;;;;12.07;9.53;;;0.10;99.90;;;;;;4984235;28;20218;-69
2022/12/04 02:56:55;;;;;;;10.70;9.37;;;0.20;99.90;;;;;;4985304;28;20605;-68
2022/12/04 02:59:27;;;;;;;11.23;9.33;;;0.20;99.90;;;;;;4986456;28;20194;-68
2022/12/04 03:01:58;;;;;;;10.57;8.57;;;0.20;99.90;;;;;;4985097;28;20297;-69
2022/12/04 03:04:26;;;;;;;11.43;8.67;;;0.20;99.90;;;;;;4984366;28;20702;-68
2022/12/04 03:06:58;;;;;;;12.43;9.83;;;0.20;99.90;;;;;;4993361;28;20213;-68
2022/12/04 03:09:41;;;;;;;11.77;9.03;;;0.20;99.90;;;;;;4997947;28;20608;-68
2022/12/04 03:12:29;;;;;;;15.13;10.40;;;0.20;99.90;;;;;;4996377;28;20174;-69
2022/12/04 03:15:04;;;;;;;9.60;8.27;;;0.20;99.90;;;;;;4989509;28;20208;-69
2022/12/04 03:17:38;;;;;;;15.53;10.17;;;0.20;99.90;;;;;;4988746;28;20304;-69
2022/12/04 03:20:09;;;;;;;10.70;9.20;;;0.20;99.90;;;;;;4992182;28;20591;-69
2022/12/04 03:22:39;;;;;;;12.10;9.73;;;0.20;99.90;;;;;;4989307;28;20232;-69
2022/12/04 03:25:06;;;;;;;13.10;9.73;;;0.20;99.90;;;;;;4987847;28;20549;-69
2022/12/04 03:27:40;;;;;;;12.07;10.73;;;0.30;99.90;;;;;;4989547;28;20221;-69
2022/12/04 03:30:15;;;;;;;11.40;9.77;;;0.30;99.90;;;;;;4988975;28;20177;-69
2022/12/04 03:33:05;;;;;;;13.50;10.27;;;0.30;99.90;;;;;;4991582;28;20566;-69
2022/12/04 03:35:48;;;;;;;11.40;9.60;;;0.40;99.90;;;;;;4990234;28;20243;-69
2022/12/04 03:38:31;;;;;;;10.23;9.13;;;0.40;99.90;;;;;;4991752;28;20182;-69
2022/12/04 03:41:03;;;;;;;13.70;10.70;;;0.40;99.90;;;;;;4984342;28;20256;-71
2022/12/04 03:43:32;;;;;;;15.10;10.90;;;0.50;99.90;;;;;;4995362;28;20190;-71
2022/12/04 03:46:11;;;;;;;16.13;10.53;;;0.50;99.90;;;;;;4994711;28;20194;-71
2022/12/04 03:48:55;;;;;;;12.47;9.77;;;0.60;99.90;;;;;;4995244;28;20178;-71
2022/12/04 03:51:47;;;;;;;12.00;10.07;;;0.70;99.90;;;;;;4991444;28;20177;-71
2022/12/04 03:54:29;;;;;;;17.30;12.07;;;0.70;99.90;;;;;;4995125;28;20185;-71
2022/12/04 03:57:00;;;;;;;14.83;10.93;;;0.70;99.90;;;;;;4986178;28;20189;-71
2022/12/04 03:59:36;;;;;;;14.50;10.90;;;0.70;99.90;;;;;;4995364;28;20178;-71
2022/12/04 04:02:03;;;;;;;11.93;9.77;;;0.80;99.90;;;;;;4989373;28;20543;-71
2022/12/04 04:04:35;;;;;;;12.77;10.17;;;0.80;99.90;;;;;;4998903;28;20552;-70
2022/12/04 04:07:17;;;;;;;14.77;11.23;;;0.90;99.90;;;;;;4987278;28;20258;-70
2022/12/04 04:09:46;;;;;;;11.93;10.10;;;0.90;99.90;;;;;;4987030;28;20178;-71
2022/12/04 04:12:19;;;;;;;15.03;10.90;;;0.90;99.90;;;;;;4996980;28;20182;-70
2022/12/04 04:26:07;;;;;;;15.30;10.93;;;1.00;99.90;;;;;;4999074;28;20245;-69
2022/12/04 04:28:34;;;;;;;12.90;9.77;;;1.00;99.90;;;;;;4990790;28;20185;-72
2022/12/04 04:31:24;;;;;;;15.20;11.37;;;0.90;99.90;;;;;;4998089;28;20221;-70
2022/12/04 04:34:16;;;;;;;11.07;8.90;;;1.00;99.90;;;;;;4988916;28;20186;-70
2022/12/04 04:36:57;;;;;;;14.77;10.57;;;1.00;99.90;;;;;;4983013;28;20217;-71
2022/12/04 04:39:41;;;;;;;12.30;9.90;;;1.00;99.90;;;;;;4992411;28;20189;-71
2022/12/04 04:42:27;;;;;;;14.00;10.13;;;0.90;99.90;;;;;;4989215;28;20174;-71
2022/12/04 04:45:14;;;;;;;13.23;9.80;;;0.90;99.90;;;;;;4989568;28;20224;-72
2022/12/04 04:47:46;;;;;;;13.33;10.27;;;0.90;99.90;;;;;;4994680;28;20206;-71
2022/12/04 04:50:14;;;;;;;12.03;9.63;;;0.90;99.90;;;;;;4995087;28;20186;-72
2022/12/04 04:52:43;;;;;;;13.97;11.17;;;0.90;99.90;;;;;;4989804;28;20182;-71
2022/12/04 04:55:09;;;;;;;13.53;9.90;;;0.80;99.90;;;;;;4991345;28;20214;-72
2022/12/04 04:57:35;;;;;;;13.33;9.93;;;0.90;99.90;;;;;;4993187;28;20720;-71
2022/12/04 05:00:05;;;;;;;16.27;9.97;;;0.90;99.90;;;;;;4992551;28;20184;-72
2022/12/04 05:02:32;;;;;;;13.73;10.60;;;0.80;99.90;;;;;;4988763;28;20540;-71
2022/12/04 05:04:57;;;;;;;14.40;10.03;;;0.80;99.90;;;;;;4994271;28;20178;-72
2022/12/04 05:07:23;;;;;;;15.30;10.13;;;0.70;99.90;;;;;;4993868;28;20213;-69
2022/12/04 05:09:48;;;;;;;12.77;9.70;;;0.70;99.90;;;;;;4994946;28;20190;-72
2022/12/04 05:12:14;;;;;;;13.63;10.07;;;0.80;99.90;;;;;;4993486;28;20588;-70
2022/12/04 05:14:40;;;;;;;11.47;9.63;;;0.90;99.90;;;;;;4994093;28;20229;-71
2022/12/04 05:17:05;;;;;;;12.37;9.77;;;0.90;99.90;;;;;;4989092;28;20209;-72
2022/12/04 05:22:16;;;;;;;11.37;8.90;;;0.90;99.90;;;;;;4994839;28;20240;-71
2022/12/04 05:24:41;;;;;;;12.17;10.23;;;0.90;99.90;;;;;;4990149;28;20185;-72
2022/12/04 05:27:07;;;;;;;16.63;10.00;;;0.80;99.90;;;;;;4993075;28;20233;-71
2022/12/04 05:29:33;;;;;;;13.87;10.03;;;0.80;99.90;;;;;;4993621;28;20178;-71
2022/12/04 05:31:59;;;;;;;12.43;10.20;;;0.80;99.90;;;;;;4993394;28;20547;-70
2022/12/04 05:34:24;;;;;;;11.60;10.30;;;0.80;99.90;;;;;;4992141;28;20182;-71
2022/12/04 05:36:51;;;;;;;14.20;9.90;;;0.80;99.90;;;;;;4993920;28;20622;-71
2022/12/04 05:39:17;;;;;;;12.63;10.20;;;0.80;99.90;;;;;;4993235;28;20178;-70
2022/12/04 05:41:43;;;;;;;15.33;10.13;;;0.80;99.90;;;;;;4992788;28;20217;-72
2022/12/04 05:44:08;;;;;;;12.80;9.50;;;0.70;99.90;;;;;;4992024;28;20277;-72
2022/12/04 05:46:34;;;;;;;14.53;10.67;;;0.70;99.90;;;;;;4993732;28;20213;-71
2022/12/04 05:49:00;;;;;;;11.73;9.73;;;0.70;99.90;;;;;;4991513;28;20189;-71
2022/12/04 05:51:25;;;;;;;12.83;9.83;;;0.70;99.90;;;;;;4993747;28;20577;-70
2022/12/04 05:53:51;;;;;;;10.67;9.27;;;0.70;99.90;;;;;;4993247;28;20208;-70
2022/12/04 05:56:17;;;;;;;12.87;8.57;;;0.70;99.90;;;;;;4992802;28;20293;-70
2022/12/04 05:58:42;;;;;;;11.50;9.30;;;0.60;99.90;;;;;;4989240;28;20188;-71
2022/12/04 06:01:17;;;;;;;12.20;9.47;;;0.70;99.90;;;;;;4992249;28;20190;-71
2022/12/04 06:03:43;;;;;;;12.33;8.93;;;0.70;99.90;;;;;;4983691;28;20268;-71
2022/12/04 06:06:23;;;;;;;10.90;8.37;;;0.60;99.90;;;;;;4985866;28;20292;-72
2022/12/04 06:08:54;;;;;;;13.30;9.87;;;0.70;99.90;;;;;;4986217;28;20178;-71
2022/12/04 06:11:23;;;;;;;17.80;10.67;;;0.60;99.90;;;;;;4997715;28;20216;-70
2022/12/04 06:13:50;;;;;;;13.57;9.87;;;0.60;99.90;;;;;;4996731;28;20178;-70
2022/12/04 06:16:21;;;;;;;13.00;9.70;;;0.60;99.90;;;;;;4990572;28;20579;-70
2022/12/04 06:18:52;;;;;;;16.20;9.80;;;0.60;99.90;;;;;;4986495;28;20672;-70
2022/12/04 06:21:19;;;;;;;12.87;9.83;;;0.70;99.90;;;;;;4991598;28;20278;-69
2022/12/04 06:23:44;;;;;;;14.93;9.90;;;0.70;99.90;;;;;;4988563;28;20609;-72
2022/12/04 06:26:10;;;;;;;12.63;9.90;;;0.70;99.90;;;;;;4999041;28;20262;-69
2022/12/04 06:28:36;;;;;;;11.07;8.73;;;0.80;99.90;;;;;;4993209;28;20174;-71
2022/12/04 06:31:08;;;;;;;12.70;9.70;;;0.80;99.90;;;;;;4993873;28;20182;-69
2022/12/04 06:33:34;;;;;;;13.23;9.47;;;0.80;99.90;;;;;;4991237;28;20660;-70
2022/12/04 06:36:02;;;;;;;11.90;8.80;;;0.80;99.90;;;;;;4991103;28;20194;-70
2022/12/04 06:38:28;;;;;;;14.00;9.73;;;0.80;99.90;;;;;;4989621;28;20186;-70
2022/12/04 06:40:54;;;;;;;10.80;9.23;;;0.70;99.90;;;;;;4992875;28;20178;-70
2022/12/04 06:43:20;;;;;;;15.43;10.13;;;0.70;99.90;;;;;;4996907;28;20244;-70
2022/12/04 06:45:45;;;;;;;16.07;10.30;;;0.70;99.90;;;;;;4992601;28;20284;-70
2022/12/04 06:48:11;;;;;;;13.77;9.77;;;0.70;99.90;;;;;;4987845;28;20214;-70
2022/12/04 06:50:36;;;;;;;14.57;10.10;;;0.70;99.90;;;;;;4995739;28;20549;-70
2022/12/04 06:53:02;;;;;;;14.23;10.23;;;0.70;99.90;;;;;;5000332;28;20210;-70
2022/12/04 06:55:28;;;;;;;16.43;10.77;;;0.70;99.90;;;;;;4991044;28;20186;-71
2022/12/04 06:57:54;;;;;;;15.83;10.97;;;0.70;99.90;;;;;;4990875;28;20210;-70
2022/12/04 07:00:19;;;;;;;15.07;10.47;;;0.80;99.90;;;;;;4999420;28;20209;-71
2022/12/04 07:02:45;;;;;;;13.57;10.13;;;0.80;99.90;;;;;;4993087;28;20182;-73
2022/12/04 07:05:11;;;;;;;14.70;10.20;;;0.90;99.90;;;;;;4999821;28;20263;-72
2022/12/04 07:07:36;;;;;;;16.10;10.80;;;0.90;99.90;;;;;;5000050;28;20209;-73
2022/12/04 07:10:03;;;;;;;13.73;10.13;;;1.00;99.90;;;;;;5009133;28;20312;-73
2022/12/04 07:12:29;;;;;;;14.13;10.30;;;1.10;99.90;;;;;;4998168;28;20201;-72
2022/12/04 07:14:55;;;;;;;16.23;11.20;;;1.20;99.90;;;;;;4999179;28;20205;-75
2022/12/04 07:17:20;;;;;;;13.73;10.03;;;1.20;99.90;;;;;;4989295;28;20210;-74
2022/12/04 07:19:46;;;;;;;13.00;10.17;;;1.30;99.90;;;;;;5001760;28;20235;-74
2022/12/04 07:22:12;;;;;;;11.95;9.23;;;1.40;99.90;;;;;;4993883;28;20653;-74
2022/12/04 07:24:37;;;;;;;11.60;9.77;;;1.40;99.90;;;;;;4988922;28;20201;-73
2022/12/04 07:27:03;;;;;;;12.10;9.10;;;1.50;99.90;;;;;;4994075;28;20216;-73
2022/12/04 07:29:29;;;;;;;12.75;9.77;;;1.60;99.90;;;;;;4993759;28;20653;-73
2022/12/04 07:31:55;;;;;;;13.27;10.02;;;1.70;99.90;;;;;;4997816;28;20236;-73
2022/12/04 07:34:20;;;;;;;13.40;9.32;;;1.70;99.90;;;;;;4997069;28;20256;-74
2022/12/04 07:36:46;;;;;;;15.35;10.32;;;1.70;99.90;;;;;;5001946;28;20202;-73
2022/12/04 07:39:12;;;;;;;13.55;9.38;;;1.80;99.90;;;;;;5003662;28;20192;-73
2022/12/04 07:41:37;;;;;;;12.50;9.85;;;2.00;99.90;;;;;;4984218;28;20177;-73
2022/12/04 07:44:03;;;;;;;11.73;9.52;;;2.00;99.90;;;;;;4987126;28;20281;-73
2022/12/04 07:46:29;;;;;;;12.80;9.55;;;2.10;99.90;;;;;;4992419;28;20677;-71
2022/12/04 07:48:56;;;;;;;10.75;9.35;;;2.20;99.90;;;;;;5005133;28;20458;-71
2022/12/04 07:51:24;;;;;;;10.32;9.30;;;2.30;99.90;;;;;;4993720;28;20182;-73
2022/12/04 07:53:52;;;;;;;12.07;9.88;;;2.40;99.90;;;;;;4989205;28;20178;-74
2022/12/04 07:56:18;;;;;;;12.52;9.35;;;2.50;99.90;;;;;;4991202;28;20198;-73
2022/12/04 07:58:45;;;;;;;10.70;9.25;;;2.60;99.90;;;;;;4993595;28;20535;-73
2022/12/04 08:01:12;;;;;;;12.27;9.82;;;2.60;99.90;;;;;;4987758;28;20702;-73
2022/12/04 08:03:39;;;;;;;13.40;9.48;;;2.70;99.90;;;;;;4989941;28;20182;-73
2022/12/04 08:06:06;;;;;;;11.23;8.90;;;2.80;99.90;;;;;;4994591;28;20202;-73
2022/12/04 08:08:32;;;;;;;10.48;8.45;;;2.90;99.90;;;;;;5001146;28;20173;-73
2022/12/04 08:10:59;;;;;;;9.82;8.20;;;2.90;99.90;;;;;;4991491;28;20189;-71
2022/12/04 08:13:24;;;;;;;8.68;7.78;;;3.00;99.90;;;;;;4992090;28;20244;-71
2022/12/04 08:15:50;;;;;;;10.43;7.90;;;3.00;99.90;;;;;;4988751;28;20193;-71
2022/12/04 08:18:16;;;;;;;9.65;8.52;;;3.00;99.90;;;;;;4989654;28;20732;-74
2022/12/04 08:20:42;;;;;;;9.02;8.05;;;3.10;99.90;;;;;;4984152;28;20189;-72
2022/12/04 08:23:08;;;;;;;8.35;7.55;;;3.10;99.90;;;;;;4993733;28;20517;-71
2022/12/04 08:25:36;;;;;;;10.13;9.02;;;3.20;99.90;;;;;;4991463;28;20180;-71
2022/12/04 08:28:02;;;;;;;11.10;8.50;;;3.20;99.90;;;;;;4992409;28;20205;-72
2022/12/04 08:30:27;;;;;;;9.52;8.50;;;3.20;99.90;;;;;;4993596;28;20916;-73
2022/12/04 08:32:53;;;;;;;9.82;8.77;;;3.20;99.90;;;;;;4983836;28;20218;-71
2022/12/04 08:35:18;;;;;;;9.35;8.35;;;3.30;99.90;;;;;;4981555;28;20178;-73
2022/12/04 08:37:44;;;;;;;9.20;8.27;;;3.30;99.90;;;;;;4990531;28;20245;-70
2022/12/04 08:40:10;;;;;;;9.75;7.40;;;3.40;99.90;;;;;;4992817;28;20190;-71
2022/12/04 08:42:36;;;;;;;9.82;7.50;;;3.50;99.90;;;;;;4989425;28;20191;-71
2022/12/04 08:45:01;;;;;;;9.88;8.15;;;3.60;99.90;;;;;;4981785;28;20656;-72
2022/12/04 08:47:27;;;;;;;9.65;7.53;;;3.70;99.90;;;;;;4991885;28;20210;-71
2022/12/04 08:49:52;;;;;;;8.32;7.43;;;3.70;99.90;;;;;;4983113;28;20650;-72
2022/12/04 08:52:18;;;;;;;9.13;8.15;;;3.80;99.90;;;;;;4993268;28;20213;-72
2022/12/04 08:54:44;;;;;;;8.30;7.40;;;3.80;99.90;;;;;;4995888;28;20166;-73
2022/12/04 08:57:09;;;;;;;8.57;7.65;;;4.00;99.90;;;;;;4996854;28;20220;-74
2022/12/04 08:59:35;;;;;;;7.95;7.25;;;4.30;99.90;;;;;;4983394;28;20189;-73
2022/12/04 09:02:00;;;;;;;8.77;7.68;;;4.90;99.90;;;;;;4984532;28;20236;-75
2022/12/04 09:04:26;;;;;;;9.00;7.65;;;5.40;99.90;;;;;;4989008;28;20215;-76
2022/12/04 09:06:51;;;;;;;8.05;7.10;;;6.00;99.90;;;;;;4991234;28;20217;-76
2022/12/04 09:09:17;;;;;;;6.55;5.90;;;6.90;99.90;;;;;;4994677;28;20309;-76
2022/12/04 09:11:45;;;;;;;6.40;5.80;;;8.00;99.90;;;;;;4992268;28;20178;-77
2022/12/04 09:14:11;;;;;;;5.63;5.00;;;9.20;99.90;;;;;;4989348;28;20216;-80
2022/12/04 09:16:37;;;;;;;5.97;5.43;;;10.20;99.90;;;;;;4997632;28;20288;-79
2022/12/04 09:19:03;;;;;;;5.95;5.43;;;10.70;99.90;;;;;;5007179;28;20173;-80
2022/12/04 09:21:29;;;;;;;6.80;6.10;;;10.70;99.90;;;;;;5005903;28;20193;-81
2022/12/04 09:23:55;;;;;;;5.55;5.05;;;10.80;99.90;;;;;;5003013;28;20277;-80
2022/12/04 09:26:26;;;;;;;5.78;5.15;;;11.80;99.90;;;;;;4996703;28;20308;-81
2022/12/04 09:28:53;;;;;;;5.15;4.70;;;13.40;99.90;;;;;;4999871;28;20189;-79
2022/12/04 09:31:20;;;;;;;5.25;4.80;;;14.60;99.90;;;;;;4998160;28;20677;-81
2022/12/04 09:33:55;;;;;;;5.75;5.20;;;15.70;99.90;;;;;;5002740;28;20178;-82
2022/12/04 09:36:21;;;;;;;5.57;4.97;;;16.80;99.90;;;;;;5005058;28;20201;-82
2022/12/04 09:38:49;;;;;;;4.97;4.47;;;17.50;97.30;;;;;;4997382;28;20200;-83
2022/12/04 09:41:30;;;;;;;5.15;4.70;;;18.20;93.30;;;;;;5004176;28;20205;-82
2022/12/04 09:43:56;;;;;;;4.60;4.20;;;18.60;91.10;;;;;;5012653;28;20189;-81
2022/12/04 09:46:47;;;;;;;5.18;4.78;;;18.80;87.40;;;;;;4995609;28;20245;-77
2022/12/04 09:49:22;;;;;;;4.65;4.35;;;19.00;85.40;;;;;;4977562;28;20234;-77
2022/12/04 09:51:51;;;;;;;5.07;4.57;;;19.50;81.80;;;;;;4992914;28;20265;-77
2022/12/04 09:54:22;;;;;;;5.07;4.68;;;20.00;78.40;;;;;;4989946;28;20289;-78
2022/12/04 09:57:00;;;;;;;4.97;4.47;;;20.50;78.30;;;;;;4989248;28;20292;-78
2022/12/04 09:59:29;;;;;;;5.03;4.63;;;20.80;75.00;;;;;;5001086;28;20180;-77
2022/12/04 10:02:17;;;;;;;4.72;4.32;;;21.00;72.30;;;;;;4993907;28;20186;-77
2022/12/04 10:04:43;;;;;;;4.45;4.13;;;21.30;71.80;;;;;;4984414;28;20563;-77
2022/12/04 10:07:21;;;;;;;5.30;4.80;;;21.90;69.50;;;;;;4986867;28;20304;-78
2022/12/04 10:10:01;;;;;;;5.00;4.60;;;22.40;67.40;;;;;;4980686;28;20309;-79
2022/12/04 10:12:59;;;;;;;4.95;4.55;;;22.50;65.60;;;;;;4979395;28;20182;-78
2022/12/04 10:15:31;;;;;;;4.90;4.50;;;22.70;64.30;;;;;;4977993;28;20229;-77
2022/12/04 10:18:15;;;;;;;5.22;4.78;;;23.10;63.60;;;;;;4980671;28;20186;-77
2022/12/04 10:21:06;;;;;;;5.20;4.80;;;23.00;62.30;;;;;;4986018;28;20174;-78
2022/12/04 10:23:43;;;;;;;5.55;5.05;;;23.20;61.70;;;;;;4987320;28;20209;-77
2022/12/04 10:26:14;;;;;;;5.00;4.60;;;23.50;60.60;;;;;;4996666;28;20237;-77
2022/12/04 10:29:01;;;;;;;5.20;4.80;;;23.20;60.70;;;;;;4992891;28;20178;-76
2022/12/04 10:31:28;;;;;;;5.55;5.05;;;23.30;60.00;;;;;;4988073;28;20182;-77
2022/12/04 10:34:15;;;;;;;4.47;4.15;;;23.30;60.70;;;;;;4993673;28;20514;-77
2022/12/04 10:36:47;;;;;;;4.80;4.40;;;22.90;61.30;;;;;;4987817;28;20205;-77
2022/12/04 10:40:01;;;;;;;5.88;5.38;;;22.60;61.20;;;;;;4993288;28;20664;-76
2022/12/04 10:42:45;;;;;;;5.45;5.05;;;20.60;63.30;;;;;;4991741;28;20297;-75
2022/12/04 10:45:12;;;;;;;5.93;5.43;;;18.50;68.40;;;;;;4992947;28;20222;-75
2022/12/04 10:47:43;;;;;;;5.63;5.18;;;17.00;71.60;;;;;;4993377;28;20209;-75
2022/12/04 10:50:17;;;;;;;5.82;5.32;;;15.60;76.10;;;;;;4983750;28;20200;-76
2022/12/04 10:52:43;;;;;;;5.97;5.40;;;14.30;80.70;;;;;;4983240;28;20706;-75
2022/12/04 10:55:09;;;;;;;5.65;5.15;;;12.90;86.10;;;;;;4991658;28;20277;-76
2022/12/04 10:57:43;;;;;;;6.32;5.55;;;12.00;91.00;;;;;;4985767;28;20286;-75
2022/12/04 11:00:27;;;;;;;6.43;5.68;;;11.10;93.70;;;;;;4993009;28;20622;-76
2022/12/04 11:02:56;;;;;;;6.63;6.03;;;10.60;96.90;;;;;;4973326;28;20190;-75
2022/12/04 11:05:41;;;;;;;6.95;6.35;;;10.50;99.40;;;;;;4990155;28;20260;-76
2022/12/04 11:08:06;;;;;;;7.03;6.30;;;11.30;99.60;;;;;;4990318;28;20437;-75
2022/12/04 11:10:42;;;;;;;6.80;6.20;;;12.60;98.40;;;;;;4990143;28;20174;-75
2022/12/04 11:13:10;;;;;;;6.55;5.88;;;13.90;94.60;;;;;;4988310;28;20679;-75
2022/12/04 11:15:46;;;;;;;6.07;5.57;;;14.50;93.20;;;;;;5003515;28;20197;-75
2022/12/04 11:18:18;;;;;;;7.57;6.85;;;15.10;92.00;;;;;;5013590;28;20587;-76
2022/12/04 11:21:02;;;;;;;7.10;6.40;;;15.50;90.80;;;;;;4978795;28;20627;-76
2022/12/04 11:23:32;;;;;;;5.80;5.32;;;16.30;89.30;;;;;;4973840;28;20174;-76
2022/12/04 11:25:59;;;;;;;6.72;6.00;;;16.90;86.20;;;;;;4972571;28;20229;-75
2022/12/04 11:28:29;;;;;;;7.07;6.53;;;17.30;83.70;;;;;;4983075;28;20214;-75
2022/12/04 11:30:58;;;;;;;7.45;6.75;;;17.00;84.30;;;;;;4990658;28;20185;-76
2022/12/04 11:33:46;;;;;;;6.80;6.20;;;16.90;83.40;;;;;;4992485;28;20661;-75
2022/12/04 11:36:33;;;;;;;8.15;6.72;;;16.60;83.70;;;;;;5004537;28;20266;-76
2022/12/04 11:39:16;;;;;;;6.50;5.90;;;17.20;83.80;;;;;;4991448;28;20260;-76
2022/12/04 11:41:42;;;;;;;7.15;6.47;;;18.30;80.80;;;;;;4986983;28;20177;-75
2022/12/04 11:44:25;;;;;;;6.72;6.13;;;18.80;79.00;;;;;;4991214;28;20201;-76
2022/12/04 11:46:56;;;;;;;7.15;6.55;;;19.40;75.80;;;;;;4991086;28;20217;-76
2022/12/04 11:49:24;;;;;;;6.68;6.00;;;19.30;75.20;;;;;;4987200;28;20674;-76
2022/12/04 11:51:49;;;;;;;6.95;6.25;;;18.50;77.40;;;;;;4997738;28;20182;-75
2022/12/04 11:54:39;;;;;;;6.97;6.35;;;17.70;77.90;;;;;;4988647;28;20588;-75
2022/12/04 11:57:28;;;;;;;7.15;6.45;;;16.70;80.90;;;;;;4991519;28;20683;-75
2022/12/04 12:00:03;;;;;;;6.60;6.00;;;16.00;83.50;;;;;;4967940;28;20817;-75
2022/12/04 12:02:50;;;;;;;7.05;6.35;;;15.10;86.70;;;;;;4990432;28;20651;-75
2022/12/04 12:05:37;;;;;;;7.50;6.72;;;14.50;88.50;;;;;;4991034;28;20182;-75
2022/12/04 12:08:41;;;;;;;7.63;6.95;;;14.10;90.50;;;;;;4997937;28;20205;-75
2022/12/04 12:11:32;;;;;;;7.40;6.72;;;13.70;91.40;;;;;;4992505;28;20186;-75
2022/12/04 12:14:01;;;;;;;8.00;7.30;;;13.70;91.90;;;;;;4993185;28;20206;-75
2022/12/04 12:16:42;;;;;;;7.43;6.63;;;13.30;92.70;;;;;;4996467;28;20208;-76
2022/12/04 12:19:27;;;;;;;7.75;7.05;;;13.20;93.50;;;;;;4992545;28;20667;-75
2022/12/04 12:22:07;;;;;;;8.07;7.28;;;12.50;94.40;;;;;;4996288;28;20811;-75
2022/12/04 12:24:52;;;;;;;7.78;7.05;;;12.20;95.80;;;;;;4991183;28;20177;-75
2022/12/04 12:27:53;;;;;;;7.07;6.40;;;12.10;96.20;;;;;;4981763;28;20244;-76
2022/12/04 12:30:21;;;;;;;6.90;6.20;;;11.90;97.10;;;;;;4988529;28;20213;-77
2022/12/04 12:33:15;;;;;;;7.82;7.03;;;11.70;97.90;;;;;;4994022;28;20174;-80
2022/12/04 12:36:04;;;;;;;7.13;6.50;;;11.50;98.40;;;;;;4981562;28;20194;-81
2022/12/04 12:38:51;;;;;;;6.68;6.07;;;11.60;98.90;;;;;;4988121;28;20276;-76
2022/12/04 12:41:22;;;;;;;7.38;6.68;;;11.70;99.20;;;;;;4997140;28;20216;-76
2022/12/04 12:43:55;;;;;;;7.43;6.60;;;12.00;98.90;;;;;;4985460;28;20237;-75
2022/12/04 12:46:42;;;;;;;7.32;6.63;;;12.20;97.80;;;;;;4989310;28;20201;-76
2022/12/04 12:49:22;;;;;;;8.35;7.50;;;11.90;98.40;;;;;;4990456;28;20214;-75
2022/12/04 12:52:03;;;;;;;12.25;10.70;;;12.00;99.00;;;;;;5009768;28;20173;-80
2022/12/04 12:54:32;;;;;;;7.78;7.00;;;12.00;99.60;;;;;;4999928;28;20562;-79
2022/12/04 12:57:12;;;;;;;9.50;8.50;;;11.80;99.10;;;;;;5006971;28;20193;-79
2022/12/04 12:59:45;;;;;;;8.18;7.38;;;11.70;99.90;;;;;;5008408;28;20189;-78
2022/12/04 13:02:27;;;;;;;7.93;7.13;;;11.60;99.90;;;;;;5014995;28;20178;-79
2022/12/04 13:05:00;;;;;;;8.82;7.90;;;11.30;99.90;;;;;;5008356;28;20555;-79
2022/12/04 13:08:00;;;;;;;8.55;7.72;;;11.10;99.90;;;;;;5002235;28;20248;-78
2022/12/04 13:10:39;;;;;;;8.98;8.07;;;10.80;99.90;;;;;;4999079;28;20174;-79
2022/12/04 13:13:18;;;;;;;8.45;7.60;;;10.50;99.90;;;;;;4998621;28;20714;-76
2022/12/04 13:15:52;;;;;;;8.80;7.28;;;10.20;99.90;;;;;;4985750;28;20836;-75
2022/12/04 13:18:26;;;;;;;8.00;7.20;;;10.10;99.90;;;;;;4989332;28;20190;-74
2022/12/04 13:20:56;;;;;;;8.93;8.13;;;9.90;99.90;;;;;;4983650;28;20267;-75
2022/12/04 13:24:01;;;;;;;8.32;7.53;;;9.90;99.90;;;;;;4991859;28;20185;-74